Time;durP1;ratioP1;P1;durP2;ratioP2;P2;SDS_P1;SDS_P2;PMS_P1;PMS_P2;Temp;Humidity;BMP_temperature;BMP_pressure;BME280_temperature;BME280_humidity;BME280_pressure;Samples;Min_cycle;Max_cycle;Signal;HPM_P1;HPM_P2
2021/12/07 00:00:25;;;;;;;33.28;15.25;;;;;;;0.09;81.51;98150.03;1791515;80;27544;-62
2021/12/07 00:02:52;;;;;;;33.15;15.40;;;;;;;0.10;81.76;98151.68;1791212;80;25660;-61
2021/12/07 00:05:19;;;;;;;38.08;19.00;;;;;;;0.11;81.70;98153.81;1791237;80;25433;-61
2021/12/07 00:07:46;;;;;;;36.55;17.30;;;;;;;0.11;81.80;98143.04;1791271;80;25464;-62
2021/12/07 00:10:16;;;;;;;39.65;17.50;;;;;;;0.14;81.67;98144.42;1791713;80;25642;-62
2021/12/07 00:12:45;;;;;;;34.78;16.65;;;;;;;0.11;81.67;98147.08;1791613;80;26846;-61
2021/12/07 00:15:16;;;;;;;36.93;17.92;;;;;;;0.09;81.58;98142.50;1791257;80;25782;-61
2021/12/07 00:17:42;;;;;;;34.27;16.77;;;;;;;0.12;81.82;98142.78;1791180;80;25474;-61
2021/12/07 00:20:14;;;;;;;35.28;16.95;;;;;;;0.09;81.46;98147.34;1791267;80;25679;-61
2021/12/07 00:22:42;;;;;;;32.23;16.80;;;;;;;0.15;81.89;98152.78;1791246;80;25426;-61
2021/12/07 00:25:11;;;;;;;31.95;15.95;;;;;;;0.16;81.68;98153.87;1769157;80;29428;-62
2021/12/07 00:27:38;;;;;;;42.23;19.27;;;;;;;0.16;81.22;98161.95;1761438;81;25617;-61
2021/12/07 00:30:08;;;;;;;38.88;17.52;;;;;;;0.16;81.59;98166.52;1761086;81;25476;-62
2021/12/07 00:32:41;;;;;;;35.13;18.60;;;;;;;0.18;81.75;98169.78;1761578;80;25677;-61
2021/12/07 00:37:57;;;;;;;39.18;17.92;;;;;;;0.10;81.64;98173.76;1761133;81;25686;-61
2021/12/07 00:40:25;;;;;;;42.80;19.25;;;;;;;0.11;81.73;98176.72;1761410;81;26335;-62
2021/12/07 00:42:52;;;;;;;43.17;20.43;;;;;;;0.17;81.94;98172.20;1761382;81;25701;-62
2021/12/07 00:45:21;;;;;;;43.48;20.70;;;;;;;0.23;81.76;98167.93;1761054;81;25677;-61
2021/12/07 00:47:50;;;;;;;35.83;16.80;;;;;;;0.23;81.31;98165.79;1761030;80;25658;-63
2021/12/07 00:50:20;;;;;;;38.45;17.65;;;;;;;0.18;81.11;98162.52;1761383;80;27407;-62
2021/12/07 00:52:48;;;;;;;34.70;17.07;;;;;;;0.15;81.48;98164.37;1761387;81;25460;-62
2021/12/07 00:55:20;;;;;;;42.43;18.85;;;;;;;0.17;81.64;98159.53;1761091;81;25659;-63
2021/12/07 00:57:51;;;;;;;37.90;17.75;;;;;;;0.16;81.35;98153.05;1761378;80;25479;-62
2021/12/07 01:00:16;;;;;;;42.83;19.70;;;;;;;0.12;81.25;98161.64;1760661;81;25649;-62
2021/12/07 01:02:44;;;;;;;38.00;16.85;;;;;;;0.11;81.69;98151.13;1761071;81;27441;-63
2021/12/07 01:05:21;;;;;;;43.52;20.08;;;;;;;0.08;81.56;98149.77;1760977;81;25419;-62
2021/12/07 01:26:41;;;;;;;41.33;19.37;;;;;;;0.06;81.69;98118.77;1761113;81;25583;-62
2021/12/07 01:29:08;;;;;;;48.63;23.10;;;;;;;0.03;81.80;98122.77;1761453;81;27359;-62
2021/12/07 01:32:05;;;;;;;38.55;17.85;;;;;;;0.00;81.54;98132.74;1761547;81;25443;-62
2021/12/07 01:34:47;;;;;;;36.65;17.30;;;;;;;-0.02;81.66;98134.34;1759696;81;25454;-62
2021/12/07 01:37:08;;;;;;;39.18;18.20;;;;;;;0.04;81.74;98133.84;1757767;81;25713;-62
2021/12/07 01:52:59;;;;;;;37.93;17.30;;;;;;;-0.17;81.67;98121.53;1761701;81;25437;-62
2021/12/07 02:00:25;;;;;;;31.25;14.80;;;;;;;-0.07;81.55;98124.86;1761333;81;25728;-62
2021/12/07 02:02:51;;;;;;;34.58;15.68;;;;;;;-0.10;81.34;98124.03;1761472;81;25617;-62
2021/12/07 02:05:17;;;;;;;36.80;17.55;;;;;;;-0.16;81.38;98120.48;1761301;80;25487;-62
2021/12/07 02:07:44;;;;;;;33.13;15.93;;;;;;;-0.17;81.30;98121.53;1761210;81;27373;-62
2021/12/07 02:10:22;;;;;;;42.00;18.37;;;;;;;-0.21;81.12;98120.95;1761168;81;25632;-62
2021/12/07 02:12:44;;;;;;;40.55;19.27;;;;;;;-0.19;81.66;98123.69;1758285;81;25665;-62
2021/12/07 02:15:15;;;;;;;38.42;18.70;;;;;;;-0.21;81.48;98115.57;1761147;81;25478;-62
2021/12/07 02:17:42;;;;;;;;;;;;;;;-0.19;81.68;98110.23;1764267;81;25605;-63
2021/12/07 02:20:11;;;;;;;37.83;16.30;;;;;;;-0.19;81.61;98110.23;1761484;80;28848;-63
2021/12/07 02:22:38;;;;;;;36.48;16.42;;;;;;;-0.16;81.75;98112.41;1761591;81;25718;-62
2021/12/07 02:25:09;;;;;;;37.05;16.20;;;;;;;-0.16;81.51;98109.72;1761493;80;25654;-62
2021/12/07 02:27:36;;;;;;;35.38;15.88;;;;;;;-0.17;81.52;98107.28;1761711;81;25602;-62
2021/12/07 02:30:08;;;;;;;35.03;15.32;;;;;;;-0.16;81.40;98102.16;1761196;81;25759;-63
2021/12/07 02:32:36;;;;;;;37.00;16.40;;;;;;;-0.15;81.58;98097.04;1761528;80;28279;-62
2021/12/07 02:35:03;;;;;;;32.95;14.98;;;;;;;-0.17;81.32;98108.07;1761151;81;25482;-63
2021/12/07 02:37:33;;;;;;;40.05;20.52;;;;;;;-0.17;81.52;98104.58;1761543;80;25415;-62
2021/12/07 02:40:02;;;;;;;36.60;18.53;;;;;;;-0.17;81.42;98110.77;1761519;81;25639;-62
2021/12/07 02:42:28;;;;;;;32.28;16.85;;;;;;;-0.17;81.35;98105.38;1761503;81;25467;-63
2021/12/07 02:44:55;;;;;;;35.23;17.55;;;;;;;-0.19;81.35;98105.36;1761453;80;27388;-62
2021/12/07 02:47:22;;;;;;;37.55;18.02;;;;;;;-0.19;81.22;98098.11;1761133;80;25649;-63
2021/12/07 02:49:50;;;;;;;30.52;14.73;;;;;;;-0.21;81.29;98094.84;1761250;81;25447;-62
2021/12/07 02:52:17;;;;;;;34.15;16.80;;;;;;;-0.23;81.24;98090.24;1761236;81;25732;-62
2021/12/07 02:54:49;;;;;;;29.15;14.53;;;;;;;-0.22;80.96;98091.06;1761609;81;25668;-61
2021/12/07 02:57:17;;;;;;;31.93;15.43;;;;;;;-0.30;81.05;98085.09;1761106;81;26060;-62
2021/12/07 02:59:50;;;;;;;36.40;15.03;;;;;;;-0.32;81.38;98089.91;1761463;81;25471;-61
2021/12/07 03:02:16;;;;;;;37.38;16.40;;;;;;;-0.33;81.35;98085.59;1760871;81;25644;-62
2021/12/07 03:05:40;;;;;;;29.05;12.88;;;;;;;-0.31;81.50;98090.73;1761426;81;25450;-62
2021/12/07 03:07:41;;;;;;;33.48;14.40;;;;;;;-0.33;81.18;98099.06;1741131;81;25648;-62
2021/12/07 03:26:15;;;;;;;36.15;16.15;;;;;;;-0.31;80.91;98112.27;1783191;80;25889;-62
2021/12/07 03:28:46;;;;;;;34.98;15.83;;;;;;;-0.31;81.30;98115.78;1791619;80;25458;-62
2021/12/07 03:31:15;;;;;;;29.92;14.85;;;;;;;-0.28;80.99;98116.63;1791711;80;25740;-62
2021/12/07 03:33:42;;;;;;;32.58;15.63;;;;;;;-0.34;80.65;98119.52;1791632;80;25394;-62
2021/12/07 03:36:10;;;;;;;34.35;15.72;;;;;;;-0.38;80.91;98111.12;1791332;80;27435;-62
2021/12/07 03:38:38;;;;;;;36.42;17.00;;;;;;;-0.42;80.82;98116.74;1791534;80;25624;-62
2021/12/07 03:41:06;;;;;;;33.95;16.35;;;;;;;-0.43;81.21;98120.52;1791322;80;25584;-62
2021/12/07 03:43:33;;;;;;;30.65;14.00;;;;;;;-0.46;81.01;98115.08;1791663;80;25514;-65
2021/12/07 03:46:01;;;;;;;41.70;19.70;;;;;;;-0.42;81.37;98124.82;1791620;80;25584;-63
2021/12/07 03:48:28;;;;;;;36.00;15.05;;;;;;;-0.44;81.37;98125.08;1791602;80;27382;-62
2021/12/07 03:50:54;;;;;;;35.00;14.65;;;;;;;-0.42;81.23;98129.68;1791460;80;25642;-63
2021/12/07 03:53:21;;;;;;;31.42;14.53;;;;;;;-0.42;81.35;98127.52;1791734;80;25410;-62
2021/12/07 03:55:47;;;;;;;31.70;14.60;;;;;;;-0.39;81.18;98132.39;1791661;80;25669;-62
2021/12/07 03:58:15;;;;;;;34.03;15.23;;;;;;;-0.38;81.26;98138.04;1791301;80;25763;-63
2021/12/07 04:00:44;;;;;;;32.50;15.00;;;;;;;-0.33;81.30;98142.66;1791271;80;27397;-64
2021/12/07 04:03:14;;;;;;;39.83;18.92;;;;;;;-0.29;81.07;98137.08;1791188;80;27142;-64
2021/12/07 04:05:45;;;;;;;36.65;17.15;;;;;;;-0.36;80.91;98135.92;1791736;80;25474;-62
2021/12/07 04:08:13;;;;;;;;;;;;;;;-0.38;81.06;98138.04;1794291;80;25592;-61
2021/12/07 04:10:40;;;;;;;51.15;22.02;;;;;;;-0.37;81.11;98137.52;1791661;80;25699;-63
2021/12/07 04:13:07;;;;;;;40.48;17.27;;;;;;;-0.40;80.84;98145.03;1791283;80;27442;-62
2021/12/07 04:15:35;;;;;;;50.23;20.70;;;;;;;-0.46;80.90;98154.11;1791553;80;25435;-62
2021/12/07 04:18:03;;;;;;;40.10;17.30;;;;;;;-0.45;81.22;98158.45;1791800;80;25659;-61
2021/12/07 04:20:30;;;;;;;68.90;26.42;;;;;;;-0.45;81.30;98162.49;1791693;80;25493;-62
2021/12/07 04:22:57;;;;;;;85.97;31.82;;;;;;;-0.50;81.03;98158.39;1791314;80;25465;-62
2021/12/07 04:25:24;;;;;;;53.63;21.80;;;;;;;-0.51;81.28;98164.84;1783436;80;29534;-63
2021/12/07 04:27:55;;;;;;;95.30;34.50;;;;;;;-0.45;81.41;98160.33;1761321;81;25654;-62
2021/12/07 04:30:30;;;;;;;53.02;21.95;;;;;;;-0.42;81.26;98163.86;1761178;81;25665;-63
2021/12/07 04:32:58;;;;;;;77.10;28.67;;;;;;;-0.40;81.24;98152.31;1761124;81;26231;-63
2021/12/07 04:35:27;;;;;;;67.97;26.10;;;;;;;-0.39;81.27;98156.09;1761090;80;25869;-62
2021/12/07 04:37:54;;;;;;;61.10;23.75;;;;;;;-0.41;81.17;98147.97;1761853;81;28168;-62
2021/12/07 04:40:25;;;;;;;100.72;33.23;;;;;;;-0.36;81.40;98154.77;1761045;80;25733;-62
2021/12/07 04:42:52;;;;;;;54.45;21.45;;;;;;;-0.31;81.45;98158.87;1761204;81;25689;-62
2021/12/07 04:45:32;;;;;;;38.02;16.93;;;;;;;-0.35;81.09;98156.94;1761288;81;26030;-62
2021/12/07 04:57:37;;;;;;;42.53;16.73;;;;;;;-0.54;80.92;98160.80;1761128;81;25681;-61
2021/12/07 04:58:39;;;;;;;34.25;14.65;;;;;;;-0.80;81.26;98155.65;1761003;81;25690;-62
2021/12/07 05:01:11;;;;;;;47.20;20.32;;;;;;;-0.87;81.55;98149.10;1761121;81;25720;-62
2021/12/07 05:03:39;;;;;;;35.03;15.68;;;;;;;-0.87;81.86;98146.96;1761159;81;25998;-61
2021/12/07 05:06:08;;;;;;;39.25;15.80;;;;;;;-0.92;82.00;98150.41;1761266;81;25403;-64
2021/12/07 05:08:48;;;;;;;50.23;19.40;;;;;;;-0.90;82.17;98145.05;1761271;80;25521;-63
2021/12/07 05:11:27;;;;;;;46.60;18.67;;;;;;;-0.86;82.29;98138.64;1760931;81;25579;-64
2021/12/07 05:16:40;;;;;;;68.05;25.37;;;;;;;-0.86;82.18;98149.92;1761728;81;25665;-62
2021/12/07 05:24:19;;;;;;;54.27;21.37;;;;;;;-0.87;82.01;98140.23;1761180;81;25683;-62
2021/12/07 05:37:47;;;;;;;61.68;26.05;;;;;;;-1.07;82.67;98133.55;1769378;80;25419;-62
2021/12/07 05:40:16;;;;;;;69.65;25.97;;;;;;;-1.11;83.07;98124.34;1768505;81;25418;-62
2021/12/07 05:42:42;;;;;;;65.15;25.70;;;;;;;-1.08;83.42;98128.70;1769865;81;28107;-64
2021/12/07 05:45:14;;;;;;;52.35;22.27;;;;;;;-1.07;83.13;98134.89;1769452;81;25655;-62
2021/12/07 05:47:41;;;;;;;61.18;23.07;;;;;;;-1.01;83.25;98135.21;1769235;80;25723;-62
2021/12/07 05:50:11;;;;;;;47.53;17.73;;;;;;;-0.94;83.39;98127.79;1769341;80;25637;-62
2021/12/07 05:52:37;;;;;;;53.50;21.42;;;;;;;;;;1769891;80;25640;-61
2021/12/07 05:55:06;;;;;;;50.55;19.75;;;;;;;-1.04;83.54;98129.81;1769410;81;27344;-61
2021/12/07 05:57:32;;;;;;;46.10;19.27;;;;;;;-0.92;83.63;98134.27;1769547;81;25483;-61
2021/12/07 05:59:59;;;;;;;54.20;20.00;;;;;;;-0.94;83.54;98126.97;1769883;81;25395;-61
2021/12/07 06:02:25;;;;;;;54.58;22.00;;;;;;;-0.87;83.37;98131.61;1769317;81;27559;-62
2021/12/07 06:04:51;;;;;;;56.63;19.37;;;;;;;-0.86;83.32;98135.13;1769361;81;25451;-61
2021/12/07 06:07:18;;;;;;;84.15;30.30;;;;;;;-0.85;83.14;98136.74;1769328;81;27420;-61
2021/12/07 06:09:44;;;;;;;117.13;39.98;;;;;;;-0.82;83.22;98134.89;1769163;81;25479;-61
2021/12/07 06:12:11;;;;;;;104.65;33.48;;;;;;;-0.81;83.07;98134.64;1769332;81;25463;-61
2021/12/07 06:14:42;;;;;;;64.92;24.02;;;;;;;-0.70;83.33;98142.83;1769691;81;25404;-61
2021/12/07 06:17:05;;;;;;;65.90;23.85;;;;;;;-0.67;83.09;98143.67;1768658;81;25422;-61
2021/12/07 06:19:31;;;;;;;63.90;24.85;;;;;;;-0.57;83.18;98142.98;1769315;81;29507;-61
2021/12/07 06:21:58;;;;;;;63.98;24.72;;;;;;;-0.50;83.30;98147.63;1769519;81;25672;-61
2021/12/07 06:24:25;;;;;;;63.50;24.37;;;;;;;-0.49;83.05;98139.81;1769813;81;25652;-62
2021/12/07 06:26:51;;;;;;;68.78;26.85;;;;;;;-0.48;82.74;98145.50;1764413;80;27511;-61
2021/12/07 06:29:18;;;;;;;73.83;28.85;;;;;;;-0.51;82.94;98149.49;1761504;81;25641;-61
2021/12/07 06:31:45;;;;;;;78.30;30.20;;;;;;;-0.47;82.93;98155.72;1761322;81;27471;-61
2021/12/07 06:34:11;;;;;;;77.65;28.32;;;;;;;-0.41;83.21;98162.26;1761062;81;25723;-61
2021/12/07 06:36:38;;;;;;;74.37;23.98;;;;;;;-0.31;83.03;98162.91;1761590;81;25666;-63
2021/12/07 06:39:09;;;;;;;60.63;24.25;;;;;;;-0.27;82.50;98167.23;1761146;81;25661;-61
2021/12/07 06:41:36;;;;;;;52.78;20.25;;;;;;;-0.26;82.80;98161.59;1761636;81;25457;-61
2021/12/07 06:44:04;;;;;;;74.62;25.43;;;;;;;-0.20;82.49;98159.75;1761295;80;27311;-61
2021/12/07 06:46:30;;;;;;;83.50;28.45;;;;;;;-0.21;82.50;98158.13;1791248;79;25799;-62
2021/12/07 06:48:57;;;;;;;86.28;30.25;;;;;;;-0.18;82.88;98164.36;1780035;79;25763;-63
2021/12/07 06:51:23;;;;;;;111.70;34.50;;;;;;;-0.16;82.43;98165.45;1779368;79;25715;-62
2021/12/07 06:53:50;;;;;;;109.07;39.70;;;;;;;-0.30;82.08;98174.47;1803431;79;25635;-62
2021/12/07 06:56:16;;;;;;;107.45;38.30;;;;;;;-0.42;82.43;98170.59;1803456;79;27386;-61
2021/12/07 06:58:43;;;;;;;95.55;36.53;;;;;;;-0.42;82.82;98171.94;1802854;79;25742;-63
2021/12/07 07:01:11;;;;;;;143.72;52.10;;;;;;;-0.41;82.80;98176.24;1802977;79;25679;-61
2021/12/07 07:03:39;;;;;;;207.98;68.00;;;;;;;-0.43;83.07;98182.44;1803183;79;26132;-62
2021/12/07 07:06:06;;;;;;;151.20;51.40;;;;;;;-0.33;83.35;98183.88;1771480;79;25759;-61
2021/12/07 07:08:32;;;;;;;134.18;42.33;;;;;;;-0.32;82.86;98183.36;1759617;81;27575;-63
2021/12/07 07:10:59;;;;;;;195.87;66.53;;;;;;;-0.24;83.10;98184.75;1759753;81;25962;-63
2021/12/07 07:13:26;;;;;;;249.30;74.85;;;;;;;-0.23;82.94;98185.05;1759833;81;25454;-61
2021/12/07 07:15:52;;;;;;;402.07;114.65;;;;;;;-0.23;82.86;98187.19;1759738;80;25616;-61
2021/12/07 07:18:19;;;;;;;349.07;97.55;;;;;;;-0.27;82.66;98188.25;1759598;81;25735;-63
2021/12/07 07:20:45;;;;;;;479.12;139.97;;;;;;;-0.30;83.09;98186.06;1759525;81;27456;-61
2021/12/07 07:23:12;;;;;;;281.05;75.60;;;;;;;-0.29;82.88;98184.20;1759425;81;25601;-61
2021/12/07 07:25:39;;;;;;;280.05;59.70;;;;;;;-0.46;82.90;98183.73;1759696;80;25427;-61
2021/12/07 07:28:05;;;;;;;232.60;61.42;;;;;;;-0.52;83.04;98188.77;1759688;80;25712;-61
2021/12/07 07:30:32;;;;;;;331.55;79.60;;;;;;;-0.51;83.20;98191.77;1760065;81;25620;-61
2021/12/07 07:32:59;;;;;;;164.95;49.70;;;;;;;-0.53;83.10;98188.50;1759436;81;27455;-62
2021/12/07 07:35:26;;;;;;;180.55;66.70;;;;;;;-0.49;83.30;98188.83;1759733;80;25432;-61
2021/12/07 07:37:55;;;;;;;90.57;32.05;;;;;;;-0.59;83.08;98184.95;1759477;81;25629;-61
2021/12/07 07:40:22;;;;;;;110.72;31.15;;;;;;;-0.68;83.17;98175.17;1759635;81;25723;-61
2021/12/07 07:42:50;;;;;;;53.73;18.60;;;;;;;-0.68;83.45;98177.86;1759899;81;25415;-62
2021/12/07 07:45:17;;;;;;;91.92;30.17;;;;;;;-0.72;83.08;98181.30;1759465;80;27399;-62
2021/12/07 07:47:43;;;;;;;78.50;29.05;;;;;;;-0.73;83.46;98177.79;1759712;80;25680;-61
2021/12/07 07:50:12;;;;;;;84.15;30.05;;;;;;;-0.68;83.56;98183.24;1759471;81;25419;-61
2021/12/07 07:52:39;;;;;;;61.55;22.62;;;;;;;-0.60;83.55;98191.93;1759834;81;26153;-61
2021/12/07 07:55:08;;;;;;;91.15;30.92;;;;;;;-0.63;83.33;98187.87;1759699;80;25667;-62
2021/12/07 07:57:35;;;;;;;84.35;27.05;;;;;;;-0.55;83.58;98183.92;1759922;80;27380;-61
2021/12/07 08:00:06;;;;;;;58.63;21.82;;;;;;;-0.49;83.20;98192.31;1759461;81;25656;-62
2021/12/07 08:02:32;;;;;;;61.73;20.95;;;;;;;-0.52;82.98;98185.56;1759645;81;25755;-64
2021/12/07 08:04:59;;;;;;;70.65;26.75;;;;;;;-0.54;82.96;98191.75;1759408;80;25664;-62
2021/12/07 08:07:25;;;;;;;75.47;23.25;;;;;;;-0.57;82.95;98196.81;1759471;81;25669;-62
2021/12/07 08:09:52;;;;;;;50.17;21.93;;;;;;;-0.58;82.96;98195.98;1759464;81;27451;-62
2021/12/07 08:12:19;;;;;;;56.18;21.68;;;;;;;-0.61;82.81;98199.18;1759585;81;25928;-63
2021/12/07 08:14:46;;;;;;;84.72;28.10;;;;;;;-0.62;83.06;98196.73;1759397;81;25963;-62
2021/12/07 08:17:13;;;;;;;76.62;25.82;;;;;;;-0.52;83.35;98199.55;1759441;80;25470;-62
2021/12/07 08:19:40;;;;;;;121.92;36.03;;;;;;;-0.53;82.66;98198.75;1759891;81;25463;-62
2021/12/07 08:22:06;;;;;;;98.65;30.70;;;;;;;-0.42;83.23;98204.23;1760056;81;27610;-62
2021/12/07 08:24:33;;;;;;;61.37;23.12;;;;;;;-0.31;82.62;98200.60;1759634;81;25660;-61
2021/12/07 08:26:59;;;;;;;50.90;22.45;;;;;;;-0.37;82.29;98196.23;1762759;81;25439;-62
2021/12/07 08:29:27;;;;;;;31.30;13.62;;;;;;;-0.36;82.43;98203.75;1767864;81;25687;-63
2021/12/07 08:31:53;;;;;;;68.10;25.97;;;;;;;-0.44;82.09;98209.87;1767856;80;25455;-61
2021/12/07 08:34:19;;;;;;;114.45;33.38;;;;;;;-0.46;82.52;98205.27;1767548;81;27415;-63
2021/12/07 08:36:46;;;;;;;75.08;26.30;;;;;;;-0.39;82.71;98209.95;1768057;81;25726;-63
2021/12/07 08:39:13;;;;;;;97.08;31.02;;;;;;;-0.40;82.00;98210.20;1767752;81;25732;-62
2021/12/07 08:41:39;;;;;;;109.03;33.88;;;;;;;-0.45;82.22;98217.68;1767994;81;25661;-62
2021/12/07 08:44:05;;;;;;;174.35;47.53;;;;;;;-0.34;82.76;98222.65;1767744;81;25702;-61
2021/12/07 08:46:32;;;;;;;75.30;26.17;;;;;;;-0.21;82.74;98230.03;1768027;81;27933;-62
2021/12/07 08:48:58;;;;;;;94.65;29.92;;;;;;;-0.18;82.10;98226.30;1767646;81;27267;-62
2021/12/07 08:51:24;;;;;;;52.90;20.57;;;;;;;-0.10;82.33;98225.04;1768327;81;25779;-62
2021/12/07 08:54:02;;;;;;;55.80;22.30;;;;;;;-0.09;81.49;98219.13;1767859;81;25657;-61
2021/12/07 09:01:54;;;;;;;107.50;34.38;;;;;;;-0.13;81.72;98214.77;1767682;81;25584;-62
2021/12/07 09:04:21;;;;;;;114.08;33.25;;;;;;;-0.18;81.42;98210.14;1768138;81;25614;-61
2021/12/07 09:06:50;;;;;;;55.00;21.55;;;;;;;-0.15;81.93;98215.02;1767993;80;25556;-61
2021/12/07 09:09:17;;;;;;;81.47;24.92;;;;;;;-0.18;81.51;98214.70;1768025;81;25722;-62
2021/12/07 09:11:45;;;;;;;83.30;28.75;;;;;;;-0.20;81.87;98212.27;1768273;81;26873;-62
2021/12/07 09:14:14;;;;;;;60.65;23.95;;;;;;;-0.12;82.19;98215.59;1767995;81;25420;-61
2021/12/07 09:16:40;;;;;;;50.70;21.07;;;;;;;-0.15;81.68;98212.33;1767649;80;25494;-61
2021/12/07 09:19:07;;;;;;;65.83;24.35;;;;;;;-0.14;81.52;98213.95;1767879;80;25908;-61
2021/12/07 09:21:35;;;;;;;32.20;14.47;;;;;;;-0.11;81.62;98211.30;1767765;80;25463;-63
2021/12/07 09:24:03;;;;;;;50.85;20.70;;;;;;;-0.11;81.55;98213.17;1767825;81;27421;-62
2021/12/07 09:26:29;;;;;;;63.45;22.10;;;;;;;-0.11;81.63;98214.00;1767050;80;25674;-62
2021/12/07 09:28:56;;;;;;;42.13;16.27;;;;;;;-0.07;81.60;98204.33;1759709;81;25581;-61
2021/12/07 09:31:24;;;;;;;53.85;19.70;;;;;;;-0.07;81.17;98202.16;1759621;80;25417;-62
2021/12/07 09:33:51;;;;;;;53.68;21.82;;;;;;;-0.14;81.45;98203.17;1759890;81;25580;-63
2021/12/07 09:36:19;;;;;;;68.33;26.80;;;;;;;-0.14;81.59;98205.08;1759952;81;26788;-63
2021/12/07 09:38:46;;;;;;;64.37;25.70;;;;;;;-0.16;81.64;98209.37;1759565;81;25407;-62
2021/12/07 09:41:15;;;;;;;56.77;22.52;;;;;;;-0.11;81.96;98211.83;1759600;81;25639;-62
2021/12/07 09:43:42;;;;;;;77.87;27.07;;;;;;;-0.10;81.64;98208.88;1759871;80;25467;-62
2021/12/07 09:46:11;;;;;;;62.67;25.50;;;;;;;-0.15;81.91;98204.25;1759586;80;25783;-62
2021/12/07 09:48:40;;;;;;;83.05;30.92;;;;;;;-0.09;82.07;98200.27;1759833;81;27428;-64
2021/12/07 09:51:10;;;;;;;84.13;28.17;;;;;;;-0.03;81.77;98197.91;1759826;81;26096;-62
2021/12/07 09:53:37;;;;;;;345.43;90.00;;;;;;;0.01;81.72;98204.41;1759806;80;25688;-61
2021/12/07 09:56:07;;;;;;;61.25;22.20;;;;;;;0.06;81.91;98204.98;1759653;81;25431;-62
2021/12/07 09:58:36;;;;;;;46.48;20.23;;;;;;;0.04;81.38;98200.38;1759801;81;25645;-63
2021/12/07 10:01:04;;;;;;;90.75;38.67;;;;;;;0.02;81.57;98191.73;1759714;80;27588;-61
2021/12/07 10:03:30;;;;;;;109.32;47.17;;;;;;;0.09;82.24;98186.96;1759885;81;26010;-62
2021/12/07 10:05:58;;;;;;;102.20;40.52;;;;;;;0.17;81.93;98191.86;1759449;80;25681;-62
2021/12/07 10:08:26;;;;;;;67.40;24.12;;;;;;;0.22;81.80;98191.92;1759547;81;25733;-61
2021/12/07 10:10:56;;;;;;;87.42;31.57;;;;;;;0.20;81.35;98191.91;1759887;81;25628;-61
2021/12/07 10:13:30;;;;;;;83.22;30.27;;;;;;;0.22;82.22;98191.92;1759957;81;27363;-61
2021/12/07 10:15:59;;;;;;;77.62;28.32;;;;;;;0.35;82.07;98193.35;1764870;79;25657;-62
2021/12/07 10:18:32;;;;;;;54.88;20.68;;;;;;;0.35;81.42;98189.86;1789780;79;25702;-61
2021/12/07 10:21:10;;;;;;;72.25;27.32;;;;;;;0.37;80.82;98185.83;1804244;79;25617;-61
2021/12/07 10:23:42;;;;;;;50.98;20.40;;;;;;;0.39;81.42;98190.97;1804327;79;25426;-61
2021/12/07 10:26:22;;;;;;;36.42;15.53;;;;;;;0.39;80.96;98184.23;1804347;79;27378;-60
2021/12/07 10:28:59;;;;;;;55.88;22.93;;;;;;;0.39;80.92;98183.41;1803914;79;27094;-61
2021/12/07 10:31:40;;;;;;;43.28;17.65;;;;;;;0.36;81.20;98181.52;1803153;79;25719;-61
2021/12/07 10:34:23;;;;;;;60.95;24.25;;;;;;;0.48;81.39;98171.89;1804123;79;32275;-61
2021/12/07 10:36:55;;;;;;;53.20;21.48;;;;;;;0.46;81.30;98172.67;1804048;79;25556;-61
2021/12/07 10:39:26;;;;;;;52.85;20.43;;;;;;;0.48;81.32;98179.16;1804177;79;28302;-62
2021/12/07 10:42:00;;;;;;;56.50;22.93;;;;;;;0.46;81.32;98184.02;1804146;79;28129;-62
2021/12/07 10:44:30;;;;;;;48.20;19.12;;;;;;;0.51;81.08;98184.59;1804343;79;25663;-62
2021/12/07 10:47:01;;;;;;;61.85;25.20;;;;;;;0.57;80.73;98188.92;1804468;78;26190;-62
2021/12/07 10:49:36;;;;;;;57.93;22.75;;;;;;;0.62;81.58;98188.44;1803345;79;25621;-62
2021/12/07 10:52:26;;;;;;;55.10;23.35;;;;;;;0.70;80.70;98191.19;1804570;79;28060;-62
2021/12/07 10:55:22;;;;;;;59.40;23.32;;;;;;;0.77;80.72;98186.89;1804018;79;25466;-62
2021/12/07 10:57:58;;;;;;;51.13;22.00;;;;;;;0.73;80.91;98187.97;1804212;79;25437;-62
2021/12/07 11:00:33;;;;;;;51.15;20.50;;;;;;;0.76;80.95;98185.28;1804726;79;25559;-62
2021/12/07 11:03:17;;;;;;;40.43;18.70;;;;;;;0.66;79.99;98188.72;1804080;79;25458;-62
2021/12/07 11:05:50;;;;;;;52.48;19.32;;;;;;;0.51;80.10;98190.77;1803857;79;27429;-62
2021/12/07 11:08:16;;;;;;;53.28;21.20;;;;;;;0.37;80.16;98184.48;1803730;79;25737;-62
2021/12/07 11:10:48;;;;;;;52.78;20.32;;;;;;;0.35;81.08;98179.87;1779566;79;25681;-62
2021/12/07 11:13:24;;;;;;;63.63;25.30;;;;;;;0.32;80.64;98183.09;1804161;79;26193;-62
2021/12/07 11:15:58;;;;;;;49.03;21.10;;;;;;;0.33;81.31;98185.25;1802973;79;25600;-61
2021/12/07 11:18:29;;;;;;;58.25;22.70;;;;;;;0.39;81.05;98191.49;1804339;79;27403;-61
2021/12/07 11:21:02;;;;;;;;;;;;;;;0.42;81.51;98195.02;1806931;79;25415;-61
2021/12/07 11:23:33;;;;;;;53.73;22.35;;;;;;;0.46;81.26;98194.25;1804490;79;25442;-61
2021/12/07 11:31:38;;;;;;;63.05;22.32;;;;;;;0.54;81.54;98196.17;1812896;79;25730;-61
2021/12/07 11:34:21;;;;;;;51.92;21.15;;;;;;;0.56;80.96;98198.91;1811259;79;25512;-61
2021/12/07 11:37:08;;;;;;;52.90;22.32;;;;;;;0.49;80.71;98197.77;1813462;79;25655;-61
2021/12/07 11:39:52;;;;;;;61.30;24.18;;;;;;;0.51;80.95;98200.77;1813479;78;25414;-61
2021/12/07 11:42:27;;;;;;;56.92;23.20;;;;;;;0.44;80.69;98197.75;1813236;79;25398;-61
2021/12/07 11:45:08;;;;;;;53.40;21.33;;;;;;;0.37;81.22;98196.61;1813523;78;27544;-61
2021/12/07 11:47:39;;;;;;;61.15;22.40;;;;;;;0.37;81.25;98198.48;1812996;79;30372;-61
2021/12/07 11:50:32;;;;;;;64.85;25.05;;;;;;;0.43;81.42;98199.36;1813451;79;25651;-62
2021/12/07 11:53:18;;;;;;;75.75;26.75;;;;;;;0.35;81.38;98192.00;1813282;78;25635;-61
2021/12/07 11:55:49;;;;;;;53.55;21.85;;;;;;;0.30;81.42;98196.55;1813162;78;25636;-61
2021/12/07 11:58:19;;;;;;;40.75;17.35;;;;;;;0.26;81.70;98186.02;1813652;78;27972;-61
2021/12/07 12:00:51;;;;;;;50.20;20.47;;;;;;;0.17;81.54;98192.42;1813727;79;25434;-61
2021/12/07 12:03:22;;;;;;;40.08;16.70;;;;;;;0.14;81.87;98188.89;1813607;78;25670;-61
2021/12/07 12:05:51;;;;;;;34.92;16.55;;;;;;;0.04;81.81;98195.81;1813509;78;25690;-61
2021/12/07 12:08:20;;;;;;;40.67;16.80;;;;;;;0.04;82.04;98193.12;1813605;78;25642;-62
2021/12/07 12:10:58;;;;;;;37.38;16.48;;;;;;;0.06;81.98;98194.21;1813076;78;27421;-62
2021/12/07 12:14:16;;;;;;;33.48;12.40;;;;;;;0.06;81.97;98198.25;1813081;79;25418;-62
2021/12/07 12:17:07;;;;;;;76.35;31.80;;;;;;;0.02;81.70;98197.11;1813339;78;25453;-62
2021/12/07 12:20:08;;;;;;;83.72;32.80;;;;;;;0.04;82.22;98193.64;1813076;79;25651;-62
2021/12/07 12:23:02;;;;;;;87.02;32.20;;;;;;;0.06;82.08;98199.05;1813243;79;41535;-62
2021/12/07 12:25:30;;;;;;;59.88;22.37;;;;;;;-0.02;82.02;98203.56;1813277;78;27461;-62
2021/12/07 12:27:58;;;;;;;45.50;18.10;;;;;;;-0.02;82.26;98208.95;1810635;78;25479;-62
2021/12/07 12:30:32;;;;;;;69.80;22.93;;;;;;;-0.05;82.11;98214.85;1804070;79;25718;-62
2021/12/07 12:33:04;;;;;;;73.07;23.52;;;;;;;-0.09;82.19;98213.74;1803557;79;25852;-62
2021/12/07 12:35:45;;;;;;;99.03;32.63;;;;;;;-0.10;82.28;98216.13;1803162;79;25442;-62
2021/12/07 12:38:19;;;;;;;45.48;17.05;;;;;;;-0.13;82.29;98218.81;1779743;79;28085;-62
2021/12/07 12:41:06;;;;;;;51.68;18.73;;;;;;;-0.17;82.12;98219.84;1803872;79;25446;-62
2021/12/07 12:43:54;;;;;;;43.55;17.12;;;;;;;-0.21;82.53;98219.25;1804029;79;25539;-62
2021/12/07 12:46:28;;;;;;;84.35;30.00;;;;;;;-0.23;82.52;98219.51;1746241;81;25671;-62
2021/12/07 12:48:59;;;;;;;73.80;27.22;;;;;;;-0.22;82.80;98222.50;1746105;82;25794;-63
2021/12/07 12:51:31;;;;;;;43.17;17.67;;;;;;;-0.22;82.56;98223.84;1746305;82;27239;-62
2021/12/07 12:53:59;;;;;;;62.98;23.47;;;;;;;-0.18;82.62;98222.79;1718618;82;25564;-62
2021/12/07 12:56:30;;;;;;;59.90;21.97;;;;;;;-0.11;82.61;98224.77;1745771;82;25641;-63
2021/12/07 12:59:02;;;;;;;253.90;59.48;;;;;;;-0.04;82.42;98224.55;1746158;82;25693;-62
2021/12/07 13:01:44;;;;;;;93.30;27.17;;;;;;;0.00;82.54;98227.03;1744142;82;25795;-62
2021/12/07 13:04:24;;;;;;;186.07;45.30;;;;;;;0.05;82.56;98228.94;1745615;82;27480;-62
2021/12/07 13:09:43;;;;;;;198.93;45.00;;;;;;;0.07;82.25;98237.06;1746093;82;25766;-62